Time;durP1;ratioP1;P1;durP2;ratioP2;P2;SDS_P1;SDS_P2;PMS_P1;PMS_P2;Temp;Humidity;BMP_temperature;BMP_pressure;BME280_temperature;BME280_humidity;BME280_pressure;Samples;Min_cycle;Max_cycle;Signal;HPM_P1;HPM_P2
2021/06/03 00:01:47;;;;;;;;;;;18.60;62.00;;;;;;5019271;28;19971;-69
2021/06/03 00:04:12;;;;;;;;;;;18.50;62.10;;;;;;5018995;28;20354;-68
2021/06/03 00:06:37;;;;;;;;;;;18.50;62.30;;;;;;5019809;28;19924;-69
2021/06/03 00:09:03;;;;;;;;;;;18.50;62.30;;;;;;5019364;28;19917;-69
2021/06/03 00:11:29;;;;;;;;;;;18.50;62.10;;;;;;5018995;28;19936;-69
2021/06/03 00:13:54;;;;;;;;;;;18.50;62.20;;;;;;5015289;28;19948;-69
2021/06/03 00:16:20;;;;;;;;;;;18.50;62.40;;;;;;5019488;28;20024;-70
2021/06/03 00:18:45;;;;;;;;;;;18.40;63.10;;;;;;5019883;28;20462;-69
2021/06/03 00:21:12;;;;;;;;;;;18.30;63.70;;;;;;5019689;28;19952;-68
2021/06/03 00:23:37;;;;;;;;;;;18.20;63.10;;;;;;5020082;28;19952;-68
2021/06/03 00:26:03;;;;;;;;;;;18.40;63.00;;;;;;5018428;28;20438;-68
2021/06/03 00:28:28;;;;;;;;;;;18.20;63.30;;;;;;5018854;28;19992;-67
2021/06/03 00:30:54;;;;;;;;;;;18.20;63.50;;;;;;5019273;28;19960;-68
2021/06/03 00:33:19;;;;;;;;;;;18.10;63.50;;;;;;5017313;28;20324;-67
2021/06/03 00:35:45;;;;;;;;;;;18.10;63.50;;;;;;5018054;28;20102;-69
2021/06/03 00:38:11;;;;;;;;;;;18.00;64.10;;;;;;5020859;28;19979;-67
2021/06/03 00:40:37;;;;;;;;;;;18.10;63.60;;;;;;5019499;28;20496;-68
2021/06/03 00:43:05;;;;;;;;;;;18.00;64.00;;;;;;5019030;28;20012;-68
2021/06/03 00:45:33;;;;;;;;;;;18.00;63.90;;;;;;5021757;28;19939;-69
2021/06/03 00:47:58;;;;;;;;;;;18.00;64.20;;;;;;5022536;28;19935;-70
2021/06/03 00:50:32;;;;;;;;;;;17.90;64.50;;;;;;5024187;28;19913;-68
2021/06/03 00:53:00;;;;;;;;;;;17.90;64.50;;;;;;5020950;28;19975;-69
2021/06/03 00:55:25;;;;;;;;;;;17.90;64.30;;;;;;5021218;28;19917;-69
2021/06/03 00:57:51;;;;;;;;;;;17.90;64.60;;;;;;5023130;28;19971;-68
2021/06/03 01:00:17;;;;;;;;;;;17.80;64.40;;;;;;5022467;28;20288;-69
2021/06/03 01:02:43;;;;;;;;;;;17.90;64.10;;;;;;5020926;28;19913;-66
2021/06/03 01:05:13;;;;;;;;;;;17.90;64.40;;;;;;5022877;28;20332;-69
2021/06/03 01:07:39;;;;;;;;;;;17.80;64.50;;;;;;5023471;28;19913;-70
2021/06/03 01:10:11;;;;;;;;;;;17.70;64.90;;;;;;5023948;28;19940;-69
2021/06/03 01:12:40;;;;;;;;;;;17.70;64.80;;;;;;5023697;28;19917;-69
2021/06/03 01:15:06;;;;;;;;;;;17.70;65.20;;;;;;5023512;28;19961;-69
2021/06/03 01:17:32;;;;;;;;;;;17.60;65.30;;;;;;5020772;28;20045;-69
2021/06/03 01:19:58;;;;;;;;;;;17.70;65.30;;;;;;5023490;28;19932;-68
2021/06/03 01:22:39;;;;;;;;;;;17.60;65.00;;;;;;5021236;28;20000;-69
2021/06/03 01:25:05;;;;;;;;;;;17.60;65.50;;;;;;5024320;28;19917;-69
2021/06/03 01:27:32;;;;;;;;;;;17.60;65.10;;;;;;5023285;28;19925;-70
2021/06/03 01:29:59;;;;;;;;;;;17.50;65.90;;;;;;5024149;28;20731;-69
2021/06/03 01:32:26;;;;;;;;;;;17.50;66.00;;;;;;5023092;28;19971;-70
2021/06/03 01:34:52;;;;;;;;;;;17.40;66.10;;;;;;5024447;28;19971;-70
2021/06/03 01:37:18;;;;;;;;;;;17.40;66.50;;;;;;5022765;28;20012;-69
2021/06/03 01:39:44;;;;;;;;;;;17.40;66.10;;;;;;5023673;28;20003;-69
2021/06/03 01:42:10;;;;;;;;;;;17.40;66.50;;;;;;5020646;28;19967;-69
2021/06/03 01:44:36;;;;;;;;;;;17.20;67.10;;;;;;5022388;28;19993;-69
2021/06/03 01:47:03;;;;;;;;;;;17.20;66.90;;;;;;5023410;28;19948;-68
2021/06/03 01:49:29;;;;;;;;;;;17.10;67.50;;;;;;5024480;28;19929;-69
2021/06/03 01:52:00;;;;;;;;;;;17.00;67.70;;;;;;5024317;28;20012;-70
2021/06/03 01:54:26;;;;;;;;;;;17.00;67.60;;;;;;5019535;28;20008;-69
2021/06/03 01:56:51;;;;;;;;;;;17.00;67.90;;;;;;5021412;28;20363;-68
2021/06/03 01:59:17;;;;;;;;;;;16.90;68.10;;;;;;5031270;28;19913;-69
2021/06/03 02:01:42;;;;;;;;;;;16.80;68.80;;;;;;5021314;28;19999;-68
2021/06/03 02:04:08;;;;;;;;;;;16.80;68.60;;;;;;5022338;28;20008;-68
2021/06/03 02:06:33;;;;;;;;;;;16.70;69.00;;;;;;5023990;28;19995;-69
2021/06/03 02:08:59;;;;;;;;;;;16.60;69.90;;;;;;5024004;28;20345;-69
2021/06/03 02:11:24;;;;;;;;;;;16.60;69.50;;;;;;5024894;28;19935;-68
2021/06/03 02:13:52;;;;;;;;;;;16.50;70.00;;;;;;5021871;28;20361;-70
2021/06/03 02:16:20;;;;;;;;;;;16.50;70.50;;;;;;5022137;28;19962;-69
2021/06/03 02:18:48;;;;;;;;;;;16.40;70.60;;;;;;5022991;28;20012;-69
2021/06/03 02:21:14;;;;;;;;;;;16.40;70.60;;;;;;5023736;28;19920;-68
2021/06/03 02:23:40;;;;;;;;;;;16.30;71.20;;;;;;5022478;28;20349;-69
2021/06/03 02:26:06;;;;;;;;;;;16.40;70.80;;;;;;5019265;28;19952;-68
2021/06/03 02:28:33;;;;;;;;;;;16.30;71.30;;;;;;5021109;28;20384;-70
2021/06/03 02:30:58;;;;;;;;;;;16.20;71.90;;;;;;5021120;28;20411;-69
2021/06/03 02:33:24;;;;;;;;;;;16.30;71.80;;;;;;5018235;28;20359;-69
2021/06/03 02:35:50;;;;;;;;;;;16.30;71.50;;;;;;5022836;28;20361;-69
2021/06/03 02:38:20;;;;;;;;;;;16.20;71.90;;;;;;5020146;28;19970;-69
2021/06/03 02:40:45;;;;;;;;;;;16.20;71.80;;;;;;5023198;28;19977;-67
2021/06/03 02:43:11;;;;;;;;;;;16.10;72.10;;;;;;5020482;28;19928;-69
2021/06/03 02:45:36;;;;;;;;;;;16.20;71.80;;;;;;5020348;28;20024;-68
2021/06/03 02:48:02;;;;;;;;;;;16.10;72.20;;;;;;5019895;28;19960;-68
2021/06/03 02:50:28;;;;;;;;;;;16.10;72.40;;;;;;5014214;28;19912;-69
2021/06/03 02:52:54;;;;;;;;;;;16.10;72.70;;;;;;5027347;28;20330;-68
2021/06/03 02:55:20;;;;;;;;;;;16.10;72.80;;;;;;5026227;28;20281;-68
2021/06/03 02:57:46;;;;;;;;;;;16.00;72.50;;;;;;5020135;28;19929;-68
2021/06/03 03:00:14;;;;;;;;;;;16.00;73.00;;;;;;5019946;28;19921;-69
2021/06/03 03:02:39;;;;;;;;;;;16.00;73.00;;;;;;5019884;28;20386;-70
2021/06/03 03:05:05;;;;;;;;;;;15.90;73.40;;;;;;5020944;28;20046;-69
2021/06/03 03:07:32;;;;;;;;;;;15.90;73.50;;;;;;5021309;28;20040;-69
2021/06/03 03:09:58;;;;;;;;;;;16.00;72.90;;;;;;5018295;28;19929;-69
2021/06/03 03:12:24;;;;;;;;;;;15.90;73.40;;;;;;5020644;28;20454;-68
2021/06/03 03:14:49;;;;;;;;;;;16.00;73.20;;;;;;5021141;28;20011;-69
2021/06/03 03:17:15;;;;;;;;;;;16.00;73.70;;;;;;5022740;28;19917;-69
2021/06/03 03:19:40;;;;;;;;;;;16.00;72.90;;;;;;5019279;28;19936;-69
2021/06/03 03:22:06;;;;;;;;;;;16.00;72.80;;;;;;5019643;28;19913;-70
2021/06/03 03:24:31;;;;;;;;;;;16.10;72.60;;;;;;5022105;28;19913;-69
2021/06/03 03:26:57;;;;;;;;;;;16.10;72.30;;;;;;5021286;28;19917;-69
2021/06/03 03:29:22;;;;;;;;;;;16.10;72.40;;;;;;5014333;28;19956;-68
2021/06/03 03:31:48;;;;;;;;;;;16.00;73.20;;;;;;5020454;28;19929;-69
2021/06/03 03:34:13;;;;;;;;;;;16.00;73.30;;;;;;5020844;28;19977;-68
2021/06/03 03:36:39;;;;;;;;;;;16.00;72.70;;;;;;5020566;28;20004;-68
2021/06/03 03:39:05;;;;;;;;;;;16.00;73.50;;;;;;5021366;28;19917;-69
2021/06/03 03:41:31;;;;;;;;;;;16.00;73.00;;;;;;5020496;28;19925;-68
2021/06/03 03:43:57;;;;;;;;;;;16.00;73.60;;;;;;5019532;28;20008;-68
2021/06/03 03:46:22;;;;;;;;;;;16.00;73.10;;;;;;5022480;28;19913;-70
2021/06/03 03:48:48;;;;;;;;;;;16.00;73.40;;;;;;5021617;28;19929;-68
2021/06/03 03:51:14;;;;;;;;;;;16.00;72.80;;;;;;5021321;28;19918;-68
2021/06/03 03:53:41;;;;;;;;;;;16.00;73.10;;;;;;5020641;28;19997;-68
2021/06/03 03:56:06;;;;;;;;;;;16.00;73.20;;;;;;5018689;28;19966;-67
2021/06/03 03:58:36;;;;;;;;;;;16.10;72.60;;;;;;5019345;28;19924;-69
2021/06/03 04:01:02;;;;;;;;;;;16.00;72.80;;;;;;5018975;28;19963;-70
2021/06/03 04:03:27;;;;;;;;;;;16.00;73.20;;;;;;5020881;28;19913;-68
2021/06/03 04:05:53;;;;;;;;;;;16.00;72.80;;;;;;5021280;28;20036;-68
2021/06/03 04:08:18;;;;;;;;;;;16.10;72.60;;;;;;5020960;28;20281;-67
2021/06/03 04:10:44;;;;;;;;;;;16.10;72.70;;;;;;5021168;28;19928;-68
2021/06/03 04:13:09;;;;;;;;;;;16.10;73.00;;;;;;5020536;28;19976;-68
2021/06/03 04:15:35;;;;;;;;;;;16.10;72.90;;;;;;5019998;28;20008;-69
2021/06/03 04:18:00;;;;;;;;;;;16.20;72.40;;;;;;5021392;28;20015;-69
2021/06/03 04:20:26;;;;;;;;;;;16.30;72.40;;;;;;5024955;28;20294;-69
2021/06/03 04:22:51;;;;;;;;;;;16.30;72.50;;;;;;5026023;28;20021;-68
2021/06/03 04:25:17;;;;;;;;;;;16.30;72.10;;;;;;5024440;28;19971;-68
2021/06/03 04:27:43;;;;;;;;;;;16.40;71.80;;;;;;5021001;28;20322;-68
2021/06/03 04:30:10;;;;;;;;;;;16.40;72.10;;;;;;5024810;28;20008;-68
2021/06/03 04:32:35;;;;;;;;;;;16.40;71.90;;;;;;5018550;28;19965;-69
2021/06/03 04:35:02;;;;;;;;;;;16.50;72.10;;;;;;5009734;28;19913;-69
2021/06/03 04:37:27;;;;;;;;;;;16.50;72.30;;;;;;5025279;28;20313;-68
2021/06/03 04:39:53;;;;;;;;;;;16.50;72.40;;;;;;5026092;28;19917;-69
2021/06/03 04:42:19;;;;;;;;;;;16.50;71.80;;;;;;5024715;28;20068;-68
2021/06/03 04:44:45;;;;;;;;;;;16.60;72.10;;;;;;5025065;28;19978;-70
2021/06/03 04:47:11;;;;;;;;;;;16.70;71.40;;;;;;5022616;28;19927;-69
2021/06/03 04:49:36;;;;;;;;;;;16.80;71.30;;;;;;5024943;28;19917;-69
2021/06/03 04:52:25;;;;;;;;;;;16.90;70.70;;;;;;5022569;28;19951;-69
2021/06/03 04:54:47;;;;;;;;;;;17.00;70.60;;;;;;5023644;28;19923;-68
2021/06/03 04:57:13;;;;;;;;;;;17.00;70.70;;;;;;5023927;28;20001;-70
2021/06/03 04:59:38;;;;;;;;;;;17.00;70.50;;;;;;5020290;28;19962;-69
2021/06/03 05:02:04;;;;;;;;;;;17.10;70.50;;;;;;5023006;28;19928;-68
2021/06/03 05:04:29;;;;;;;;;;;17.20;69.50;;;;;;5023485;28;19968;-70
2021/06/03 05:06:55;;;;;;;;;;;17.20;69.60;;;;;;5023500;28;20016;-69
2021/06/03 05:09:21;;;;;;;;;;;17.30;69.80;;;;;;5023840;28;19961;-67
2021/06/03 05:11:46;;;;;;;;;;;17.30;70.60;;;;;;5022860;28;20413;-70
2021/06/03 05:14:11;;;;;;;;;;;17.30;70.90;;;;;;5023802;28;20417;-68
2021/06/03 05:16:37;;;;;;;;;;;17.40;70.20;;;;;;5020780;28;19961;-69
2021/06/03 05:19:02;;;;;;;;;;;17.40;70.30;;;;;;5024393;28;20242;-70
2021/06/03 05:21:28;;;;;;;;;;;17.40;69.80;;;;;;5023106;28;19952;-70
2021/06/03 05:23:53;;;;;;;;;;;17.50;69.70;;;;;;5022840;28;20020;-69
2021/06/03 05:26:19;;;;;;;;;;;17.50;70.50;;;;;;5014656;28;19932;-69
2021/06/03 05:28:44;;;;;;;;;;;17.50;70.30;;;;;;5024383;28;20000;-70
2021/06/03 05:31:10;;;;;;;;;;;17.50;70.40;;;;;;5017511;28;19917;-69
2021/06/03 05:33:35;;;;;;;;;;;17.50;70.30;;;;;;5019684;28;19971;-70
2021/06/03 05:36:01;;;;;;;;;;;17.50;70.10;;;;;;5022317;28;19921;-69
2021/06/03 05:38:27;;;;;;;;;;;17.70;70.30;;;;;;5019886;28;20454;-68
2021/06/03 05:40:52;;;;;;;;;;;17.70;69.60;;;;;;5022547;28;19966;-70
2021/06/03 05:43:18;;;;;;;;;;;17.80;68.80;;;;;;5019230;28;19913;-68
2021/06/03 05:45:44;;;;;;;;;;;17.90;68.60;;;;;;5023433;28;20281;-69
2021/06/03 05:48:09;;;;;;;;;;;18.00;69.00;;;;;;5018530;28;20087;-69
2021/06/03 05:50:35;;;;;;;;;;;18.00;68.40;;;;;;5019453;28;19921;-70
2021/06/03 05:53:00;;;;;;;;;;;18.20;69.30;;;;;;5023487;28;20277;-69
2021/06/03 05:55:26;;;;;;;;;;;18.10;68.90;;;;;;5028398;28;20107;-69
2021/06/03 05:57:52;;;;;;;;;;;18.30;69.20;;;;;;5020389;28;19951;-66
2021/06/03 06:00:19;;;;;;;;;;;18.40;69.00;;;;;;5022424;28;19917;-68
2021/06/03 06:02:52;;;;;;;;;;;18.50;66.90;;;;;;5017591;28;20394;-67
2021/06/03 06:08:03;;;;;;;;;;;18.80;67.30;;;;;;5019542;28;20000;-67
2021/06/03 06:10:29;;;;;;;;;;;19.10;66.80;;;;;;5023673;28;19920;-68
2021/06/03 06:12:55;;;;;;;;;;;19.20;66.20;;;;;;5021558;28;19913;-67
2021/06/03 06:15:20;;;;;;;;;;;19.40;64.50;;;;;;5019030;28;19925;-69
2021/06/03 06:17:46;;;;;;;;;;;19.30;64.00;;;;;;5014390;28;19998;-67
2021/06/03 06:20:12;;;;;;;;;;;19.50;64.90;;;;;;5022541;28;20316;-69
2021/06/03 06:22:38;;;;;;;;;;;19.60;64.60;;;;;;5018178;28;20078;-69
2021/06/03 06:25:04;;;;;;;;;;;19.70;62.30;;;;;;5023186;28;19987;-69
2021/06/03 06:27:30;;;;;;;;;;;19.70;63.10;;;;;;5017025;28;19924;-69
2021/06/03 06:29:55;;;;;;;;;;;19.90;62.20;;;;;;5028413;28;20339;-69
2021/06/03 06:32:21;;;;;;;;;;;20.10;62.30;;;;;;5020420;28;19982;-70
2021/06/03 06:34:46;;;;;;;;;;;20.30;60.40;;;;;;5021933;28;20342;-69
2021/06/03 06:37:12;;;;;;;;;;;20.20;60.50;;;;;;5020453;28;19917;-70
2021/06/03 06:39:38;;;;;;;;;;;20.70;60.90;;;;;;5019122;28;20329;-70
2021/06/03 06:42:04;;;;;;;;;;;20.60;59.80;;;;;;5021730;28;20052;-69
2021/06/03 06:44:29;;;;;;;;;;;20.80;60.10;;;;;;5018502;28;19932;-69
2021/06/03 06:46:55;;;;;;;;;;;20.90;60.10;;;;;;5014338;28;19917;-69
2021/06/03 06:49:21;;;;;;;;;;;20.90;59.00;;;;;;5025004;28;19939;-70
2021/06/03 06:51:47;;;;;;;;;;;21.30;61.00;;;;;;5020027;28;19925;-69
2021/06/03 06:54:12;;;;;;;;;;;21.10;57.80;;;;;;5018930;28;19992;-70
2021/06/03 06:56:38;;;;;;;;;;;21.20;58.30;;;;;;5021822;28;19925;-69
2021/06/03 06:59:03;;;;;;;;;;;21.40;57.60;;;;;;5018568;28;19913;-70
2021/06/03 07:01:29;;;;;;;;;;;21.50;57.20;;;;;;5018030;28;19988;-69
2021/06/03 07:03:54;;;;;;;;;;;21.50;57.60;;;;;;5016616;28;19924;-68
2021/06/03 07:06:20;;;;;;;;;;;21.60;58.00;;;;;;5021819;28;20401;-71
2021/06/03 07:08:45;;;;;;;;;;;21.60;58.20;;;;;;5020406;28;19913;-68
2021/06/03 07:11:11;;;;;;;;;;;21.70;57.90;;;;;;5022921;28;19932;-68
2021/06/03 07:13:37;;;;;;;;;;;21.70;57.50;;;;;;5022159;28;19952;-68
2021/06/03 07:16:02;;;;;;;;;;;21.90;58.20;;;;;;5019751;28;19921;-69
2021/06/03 07:18:28;;;;;;;;;;;21.80;57.40;;;;;;5020797;28;19992;-69
2021/06/03 07:20:53;;;;;;;;;;;22.10;57.30;;;;;;5016281;28;20000;-68
2021/06/03 07:23:21;;;;;;;;;;;22.10;59.70;;;;;;5018724;28;19984;-68
2021/06/03 07:25:46;;;;;;;;;;;22.40;57.30;;;;;;5018170;28;20158;-69
2021/06/03 07:28:12;;;;;;;;;;;22.50;57.00;;;;;;5022199;28;20004;-69
2021/06/03 07:30:38;;;;;;;;;;;22.40;56.90;;;;;;5021014;28;19967;-69
2021/06/03 07:33:04;;;;;;;;;;;22.40;56.00;;;;;;5020248;28;20254;-69
2021/06/03 07:35:31;;;;;;;;;;;22.80;57.60;;;;;;5023567;28;20389;-69
2021/06/03 07:37:57;;;;;;;;;;;23.20;56.10;;;;;;5018733;28;19998;-69
2021/06/03 07:40:24;;;;;;;;;;;23.20;55.20;;;;;;5016886;28;19929;-69
2021/06/03 07:42:50;;;;;;;;;;;23.20;54.20;;;;;;5021469;28;19914;-69
2021/06/03 07:45:17;;;;;;;;;;;23.00;56.20;;;;;;5018522;28;19987;-68
2021/06/03 07:47:43;;;;;;;;;;;23.20;53.80;;;;;;5019004;28;20130;-70
2021/06/03 07:50:09;;;;;;;;;;;23.20;55.60;;;;;;5022180;28;20032;-70
2021/06/03 07:52:36;;;;;;;;;;;23.00;54.80;;;;;;5011067;28;20468;-70
2021/06/03 07:55:03;;;;;;;;;;;23.40;54.60;;;;;;5017740;28;19971;-71
2021/06/03 07:57:28;;;;;;;;;;;23.70;53.40;;;;;;5025836;28;19968;-71
2021/06/03 07:59:54;;;;;;;;;;;23.60;51.90;;;;;;5031295;28;19913;-71
2021/06/03 08:02:19;;;;;;;;;;;23.80;54.20;;;;;;5023713;28;20019;-71
2021/06/03 08:04:45;;;;;;;;;;;24.40;54.70;;;;;;5025227;28;19948;-70
2021/06/03 08:07:10;;;;;;;;;;;24.00;50.90;;;;;;5022631;28;19997;-71
2021/06/03 08:09:36;;;;;;;;;;;24.40;52.30;;;;;;5026142;28;19913;-70
2021/06/03 08:12:01;;;;;;;;;;;24.50;52.00;;;;;;5025653;28;19940;-69
2021/06/03 08:14:27;;;;;;;;;;;24.80;50.70;;;;;;5025010;28;19935;-70
2021/06/03 08:16:52;;;;;;;;;;;24.80;49.70;;;;;;5019756;28;19967;-69
2021/06/03 08:19:20;;;;;;;;;;;24.60;49.80;;;;;;5023716;28;19948;-70
2021/06/03 08:21:46;;;;;;;;;;;24.50;50.60;;;;;;5015018;28;20251;-70
2021/06/03 08:24:11;;;;;;;;;;;24.90;53.10;;;;;;5018243;28;19932;-70
2021/06/03 08:26:36;;;;;;;;;;;24.60;49.60;;;;;;5016780;28;20008;-71
2021/06/03 08:29:02;;;;;;;;;;;24.70;50.40;;;;;;5016386;28;19913;-70
2021/06/03 08:31:27;;;;;;;;;;;24.70;50.10;;;;;;5016648;28;19924;-70
2021/06/03 08:33:53;;;;;;;;;;;24.50;48.50;;;;;;5014558;28;19924;-70
2021/06/03 08:36:21;;;;;;;;;;;24.40;49.90;;;;;;5025091;28;19933;-69
2021/06/03 08:38:46;;;;;;;;;;;24.30;49.20;;;;;;5022179;28;20490;-69
2021/06/03 08:41:12;;;;;;;;;;;24.30;50.70;;;;;;5025590;28;19923;-69
2021/06/03 08:43:37;;;;;;;;;;;24.30;49.80;;;;;;5024853;28;19936;-70
2021/06/03 08:46:03;;;;;;;;;;;24.50;51.40;;;;;;5023718;28;19913;-69
2021/06/03 08:48:29;;;;;;;;;;;24.60;49.90;;;;;;5013460;28;19925;-70
2021/06/03 08:50:58;;;;;;;;;;;24.60;51.80;;;;;;5020689;28;19913;-70
2021/06/03 08:53:24;;;;;;;;;;;24.70;48.90;;;;;;5023504;28;19921;-70
2021/06/03 08:58:34;;;;;;;;;;;24.50;50.20;;;;;;5020904;28;19988;-70
2021/06/03 09:01:00;;;;;;;;;;;24.20;49.30;;;;;;5021492;28;20008;-71
2021/06/03 09:03:27;;;;;;;;;;;24.40;50.90;;;;;;5017718;28;19959;-70
2021/06/03 09:05:53;;;;;;;;;;;24.30;51.20;;;;;;5022191;28;20302;-70
2021/06/03 09:08:19;;;;;;;;;;;24.00;50.40;;;;;;5024778;28;19914;-70
2021/06/03 09:10:45;;;;;;;;;;;24.10;53.40;;;;;;5025972;28;19978;-71
2021/06/03 09:13:14;;;;;;;;;;;23.90;51.20;;;;;;5024687;28;19917;-70
2021/06/03 09:15:44;;;;;;;;;;;24.00;51.20;;;;;;5018144;28;19963;-70
2021/06/03 09:18:11;;;;;;;;;;;24.00;50.50;;;;;;5024955;28;19940;-70
2021/06/03 09:20:38;;;;;;;;;;;23.70;51.80;;;;;;5024087;28;20228;-70
2021/06/03 09:23:04;;;;;;;;;;;23.80;53.60;;;;;;5023117;28;19909;-70
2021/06/03 09:25:34;;;;;;;;;;;24.00;52.70;;;;;;5022151;28;19920;-70
2021/06/03 09:28:18;;;;;;;;;;;24.10;52.90;;;;;;5023579;28;19960;-70
2021/06/03 09:31:01;;;;;;;;;;;23.80;52.10;;;;;;5025159;28;20010;-70
2021/06/03 09:33:46;;;;;;;;;;;23.80;53.30;;;;;;5020599;28;20023;-70
2021/06/03 09:36:13;;;;;;;;;;;23.60;53.50;;;;;;5023109;28;20075;-70
2021/06/03 09:38:52;;;;;;;;;;;23.60;52.70;;;;;;5023024;28;19935;-70
2021/06/03 09:41:18;;;;;;;;;;;23.60;53.60;;;;;;5023520;28;20009;-71
2021/06/03 09:43:44;;;;;;;;;;;23.70;54.10;;;;;;5024963;28;20052;-69
2021/06/03 09:46:12;;;;;;;;;;;23.60;52.50;;;;;;5021191;28;19921;-69
2021/06/03 09:48:39;;;;;;;;;;;23.60;54.00;;;;;;5025155;28;19990;-71
2021/06/03 09:51:22;;;;;;;;;;;23.40;54.90;;;;;;5023970;28;20293;-70
2021/06/03 09:54:01;;;;;;;;;;;23.40;54.50;;;;;;5017263;28;19910;-70
2021/06/03 09:56:32;;;;;;;;;;;23.40;55.60;;;;;;5023803;28;20000;-71
2021/06/03 09:58:58;;;;;;;;;;;23.40;55.80;;;;;;5023093;28;19917;-69
2021/06/03 10:01:42;;;;;;;;;;;23.10;53.00;;;;;;5019826;28;20366;-70
2021/06/03 10:04:08;;;;;;;;;;;23.10;55.70;;;;;;5024724;28;19920;-69
2021/06/03 10:06:50;;;;;;;;;;;23.10;54.80;;;;;;5018658;28;20345;-70
2021/06/03 10:09:16;;;;;;;;;;;23.00;54.00;;;;;;5026075;28;20019;-70
2021/06/03 10:11:46;;;;;;;;;;;23.00;54.80;;;;;;5022302;28;19913;-70
2021/06/03 10:14:13;;;;;;;;;;;23.00;55.30;;;;;;5020867;28;19995;-70
2021/06/03 10:16:39;;;;;;;;;;;22.90;56.90;;;;;;5024285;28;19921;-70
2021/06/03 10:19:21;;;;;;;;;;;22.90;56.30;;;;;;5023245;28;19936;-70
2021/06/03 10:22:05;;;;;;;;;;;22.80;56.90;;;;;;5017570;28;19935;-70
2021/06/03 10:24:46;;;;;;;;;;;22.70;58.00;;;;;;5019499;28;20419;-71
2021/06/03 10:27:11;;;;;;;;;;;22.60;58.40;;;;;;5020702;28;19913;-70
2021/06/03 10:29:37;;;;;;;;;;;22.60;59.70;;;;;;5020747;28;20374;-71
2021/06/03 10:32:03;;;;;;;;;;;22.50;60.10;;;;;;5035322;28;20313;-70
2021/06/03 10:34:29;;;;;;;;;;;22.50;60.70;;;;;;5017851;28;21614;-68
2021/06/03 10:36:56;;;;;;;;;;;22.50;61.10;;;;;;5019170;28;19917;-70
2021/06/03 10:39:22;;;;;;;;;;;22.50;62.00;;;;;;5022768;28;19921;-67
2021/06/03 10:41:47;;;;;;;;;;;22.40;61.90;;;;;;5024449;28;19948;-67
2021/06/03 10:44:13;;;;;;;;;;;22.40;60.80;;;;;;5021311;28;19913;-70
2021/06/03 10:46:42;;;;;;;;;;;22.30;60.80;;;;;;5033894;28;20543;-69
2021/06/03 10:49:07;;;;;;;;;;;22.40;60.50;;;;;;5022705;28;21968;-69
2021/06/03 10:51:33;;;;;;;;;;;22.30;61.00;;;;;;5022336;28;19917;-68
2021/06/03 10:53:59;;;;;;;;;;;22.20;62.60;;;;;;5026205;28;19920;-70
2021/06/03 10:56:27;;;;;;;;;;;22.20;63.50;;;;;;5023393;28;19956;-69
2021/06/03 10:58:54;;;;;;;;;;;22.30;64.50;;;;;;5022754;28;19913;-70
2021/06/03 11:01:21;;;;;;;;;;;22.10;63.70;;;;;;5021119;28;20366;-69
2021/06/03 11:03:50;;;;;;;;;;;22.30;63.60;;;;;;5015207;28;19917;-70
2021/06/03 11:06:17;;;;;;;;;;;22.30;64.20;;;;;;5023365;28;19913;-69
2021/06/03 11:09:03;;;;;;;;;;;22.20;63.90;;;;;;5022019;28;20089;-71
2021/06/03 11:11:29;;;;;;;;;;;22.20;65.90;;;;;;5018119;28;20418;-70
2021/06/03 11:13:55;;;;;;;;;;;22.20;66.40;;;;;;5020942;28;20007;-69
2021/06/03 11:16:21;;;;;;;;;;;22.20;65.80;;;;;;5023240;28;19927;-69
2021/06/03 11:18:49;;;;;;;;;;;22.20;66.80;;;;;;5028426;28;19921;-70
2021/06/03 11:21:46;;;;;;;;;;;22.30;65.90;;;;;;5022212;28;19932;-69
2021/06/03 11:24:11;;;;;;;;;;;22.30;65.30;;;;;;5022805;28;20297;-70
2021/06/03 11:26:37;;;;;;;;;;;22.50;65.10;;;;;;5022865;28;20120;-69
2021/06/03 11:29:09;;;;;;;;;;;22.60;64.60;;;;;;5023830;28;19952;-70
2021/06/03 11:31:35;;;;;;;;;;;22.70;62.60;;;;;;5023454;28;19913;-70
2021/06/03 11:34:08;;;;;;;;;;;23.00;65.40;;;;;;5021115;28;19913;-70
2021/06/03 11:36:38;;;;;;;;;;;23.30;61.70;;;;;;5020256;28;19987;-68
2021/06/03 11:39:05;;;;;;;;;;;23.50;61.00;;;;;;5021940;28;19952;-69
2021/06/03 11:41:38;;;;;;;;;;;23.70;61.20;;;;;;5022258;28;20012;-69
2021/06/03 11:44:08;;;;;;;;;;;23.90;62.10;;;;;;5022942;28;19917;-69
2021/06/03 11:46:49;;;;;;;;;;;23.90;61.40;;;;;;5023157;28;20346;-67
2021/06/03 11:49:33;;;;;;;;;;;24.00;60.00;;;;;;5023159;28;20020;-70
2021/06/03 11:52:07;;;;;;;;;;;24.10;61.30;;;;;;5016514;28;19959;-70
2021/06/03 11:54:52;;;;;;;;;;;24.20;60.70;;;;;;5017201;28;20012;-70
2021/06/03 11:57:18;;;;;;;;;;;24.20;58.10;;;;;;5017979;28;20055;-70
2021/06/03 12:00:02;;;;;;;;;;;24.20;56.80;;;;;;5019639;28;20037;-70
2021/06/03 12:02:34;;;;;;;;;;;24.20;60.50;;;;;;4998696;28;19921;-70
2021/06/03 12:05:09;;;;;;;;;;;24.10;61.80;;;;;;5016434;28;20134;-71
2021/06/03 12:07:48;;;;;;;;;;;24.10;60.40;;;;;;5018275;28;20301;-69
2021/06/03 12:10:15;;;;;;;;;;;24.10;59.80;;;;;;5018117;28;19952;-70
2021/06/03 12:12:41;;;;;;;;;;;24.20;61.80;;;;;;5016145;28;19933;-69
2021/06/03 12:15:17;;;;;;;;;;;24.10;59.00;;;;;;5019743;28;20400;-70
2021/06/03 12:17:43;;;;;;;;;;;24.10;62.00;;;;;;5014794;28;19917;-68
2021/06/03 12:20:11;;;;;;;;;;;24.00;59.80;;;;;;5016987;28;19917;-70
2021/06/03 12:22:36;;;;;;;;;;;23.90;60.80;;;;;;5017407;28;20013;-70
2021/06/03 12:25:04;;;;;;;;;;;23.70;59.80;;;;;;5017134;28;19921;-70
2021/06/03 12:27:33;;;;;;;;;;;23.80;57.90;;;;;;5018760;28;20487;-69
2021/06/03 12:30:18;;;;;;;;;;;23.80;60.70;;;;;;5018801;28;19917;-69
2021/06/03 12:32:58;;;;;;;;;;;23.80;62.60;;;;;;5017555;28;20389;-69
2021/06/03 12:35:43;;;;;;;;;;;23.90;61.30;;;;;;5021020;28;20016;-70
2021/06/03 12:38:09;;;;;;;;;;;24.00;60.30;;;;;;5015525;28;20078;-69
2021/06/03 12:40:35;;;;;;;;;;;24.00;62.50;;;;;;5020411;28;19921;-71
2021/06/03 12:43:04;;;;;;;;;;;23.90;60.30;;;;;;5022497;28;19917;-70
2021/06/03 12:45:35;;;;;;;;;;;24.00;63.30;;;;;;5021741;28;20266;-70
2021/06/03 12:48:00;;;;;;;;;;;24.00;63.10;;;;;;5022908;28;20067;-70
2021/06/03 12:50:26;;;;;;;;;;;24.00;61.50;;;;;;5022661;28;20028;-70
2021/06/03 12:52:52;;;;;;;;;;;24.10;61.50;;;;;;5022465;28;20393;-70
2021/06/03 12:55:20;;;;;;;;;;;24.10;61.50;;;;;;5023943;28;20317;-69
2021/06/03 12:57:46;;;;;;;;;;;24.00;62.30;;;;;;5022566;28;19921;-69
2021/06/03 13:00:17;;;;;;;;;;;23.90;60.80;;;;;;5018242;28;20686;-69
2021/06/03 13:02:44;;;;;;;;;;;24.00;62.60;;;;;;5020610;28;20007;-68
2021/06/03 13:05:11;;;;;;;;;;;24.10;59.30;;;;;;5023529;28;19917;-69
2021/06/03 13:07:37;;;;;;;;;;;24.10;60.10;;;;;;5021129;28;19932;-70
2021/06/03 13:10:07;;;;;;;;;;;24.10;58.60;;;;;;5020401;28;19936;-70
2021/06/03 13:12:33;;;;;;;;;;;24.20;57.90;;;;;;5018156;28;19918;-69
2021/06/03 13:14:59;;;;;;;;;;;24.00;55.80;;;;;;5022677;28;20381;-69
2021/06/03 13:17:31;;;;;;;;;;;24.10;55.70;;;;;;5021595;28;19917;-70
2021/06/03 13:19:57;;;;;;;;;;;24.30;56.50;;;;;;5021570;28;19974;-69
2021/06/03 13:22:24;;;;;;;;;;;24.30;57.00;;;;;;5019211;28;19921;-68
2021/06/03 13:24:51;;;;;;;;;;;24.20;54.10;;;;;;5020206;28;20032;-70
2021/06/03 13:27:19;;;;;;;;;;;24.20;55.10;;;;;;5021651;28;20115;-69
2021/06/03 13:29:55;;;;;;;;;;;24.30;54.40;;;;;;5017499;28;19921;-70
2021/06/03 13:32:31;;;;;;;;;;;24.30;52.80;;;;;;5018969;28;19916;-70
2021/06/03 13:34:59;;;;;;;;;;;24.40;52.50;;;;;;5023809;28;20008;-70
2021/06/03 13:37:27;;;;;;;;;;;24.40;53.40;;;;;;5022264;28;20074;-69
2021/06/03 13:39:56;;;;;;;;;;;24.60;55.00;;;;;;5020836;28;20361;-69
2021/06/03 13:42:24;;;;;;;;;;;24.60;54.60;;;;;;5022386;28;19914;-70
2021/06/03 13:44:49;;;;;;;;;;;24.60;55.00;;;;;;5021769;28;19963;-71
2021/06/03 13:47:15;;;;;;;;;;;24.60;55.00;;;;;;5020592;28;20271;-69
2021/06/03 13:49:41;;;;;;;;;;;24.60;53.30;;;;;;5022226;28;19929;-70
2021/06/03 13:52:06;;;;;;;;;;;24.60;55.80;;;;;;5020626;28;19940;-71
2021/06/03 13:54:32;;;;;;;;;;;24.60;51.60;;;;;;5022159;28;20475;-71
2021/06/03 13:56:57;;;;;;;;;;;24.70;52.10;;;;;;5021705;28;19917;-71
2021/06/03 13:59:23;;;;;;;;;;;24.90;54.50;;;;;;5021134;28;20329;-69
2021/06/03 14:01:49;;;;;;;;;;;25.10;54.00;;;;;;5022119;28;19944;-71
2021/06/03 14:04:16;;;;;;;;;;;25.10;50.70;;;;;;5020615;28;19932;-70
2021/06/03 14:07:05;;;;;;;;;;;25.10;50.10;;;;;;5023054;28;20380;-70
2021/06/03 14:09:31;;;;;;;;;;;25.10;50.70;;;;;;5019566;28;19930;-71
2021/06/03 14:14:34;;;;;;;;;;;25.00;51.50;;;;;;5022862;28;19958;-70
2021/06/03 14:17:09;;;;;;;;;;;25.00;52.60;;;;;;5022339;28;20040;-71
2021/06/03 14:19:38;;;;;;;;;;;25.10;53.30;;;;;;5020243;28;19999;-70
2021/06/03 14:22:03;;;;;;;;;;;25.20;53.20;;;;;;5019880;28;19909;-71
2021/06/03 14:24:28;;;;;;;;;;;25.10;52.90;;;;;;5021836;28;19972;-70
2021/06/03 14:26:55;;;;;;;;;;;25.30;53.70;;;;;;5022219;28;20436;-71